KMYV

Yuba County Airport

Marysville, California, USA
METAR KMYV 230853Z AUTO 00000KT 10SM CLR 10/07 A2992 RMK AO2 SLP135 T01000067 53002 $
Observed Flight Rules
Oct-23 @ 08:53 UTC (47 minutes ago) Visual Flight Rules
Visibility Clouds
10 miles
  • Clear skies
Temperatures Readings
Current 10°C / 50°F
Dewpoint 7°C / 45°F
Humidity 82%
Altimeter 29.92" Hg
Pressure 1013.5 hPa
Elevation 21
METAR KMYV 230853Z AUTO 00000KT 10SM CLR 10/07 A2992 RMK AO2 SLP135 T01000067 53002 $
Observed Flight Rules
Oct-23 @ 08:53 UTC
(47 minutes ago)
VFR
Clouds
  • Clear skies
Temperature Dewpoint
10°C / 50°F 7°C / 45°F
Humidity Altimeter Pressure
82% 29.92" Hg 1013.5 hPa